createdAt,value
2023-01-20T00:04:37.050Z,0
2023-01-20T00:09:37.058Z,0
2023-01-20T00:14:37.064Z,0
2023-01-20T00:19:37.061Z,0
2023-01-20T00:24:37.036Z,0
2023-01-20T00:29:37.058Z,0
2023-01-20T00:34:37.045Z,0
2023-01-20T00:39:37.043Z,0
2023-01-20T00:44:37.029Z,0
2023-01-20T00:49:37.078Z,0
2023-01-20T00:54:37.066Z,0
2023-01-20T00:59:37.256Z,0
2023-01-20T01:04:37.269Z,0
2023-01-20T01:09:37.281Z,0
2023-01-20T01:14:37.251Z,0
2023-01-20T01:19:37.271Z,0
2023-01-20T01:24:37.509Z,0
2023-01-20T01:29:37.563Z,0
2023-01-20T01:34:37.491Z,0
2023-01-20T01:39:37.523Z,0
2023-01-20T01:44:37.581Z,0
2023-01-20T01:49:37.535Z,0
2023-01-20T01:54:37.481Z,0
2023-01-20T01:59:37.488Z,0
2023-01-20T02:04:37.487Z,0
2023-01-20T02:09:37.500Z,0
2023-01-20T02:14:37.480Z,0
2023-01-20T02:19:37.478Z,0
2023-01-20T02:24:37.478Z,0
2023-01-20T02:29:37.492Z,0
2023-01-20T02:34:37.493Z,0
2023-01-20T02:39:37.740Z,0
2023-01-20T02:44:37.711Z,0
2023-01-20T02:49:37.768Z,0
2023-01-20T02:54:37.763Z,0
2023-01-20T02:59:37.717Z,0
2023-01-20T03:04:38.238Z,0
2023-01-20T03:09:38.032Z,0
2023-01-20T03:14:37.928Z,0
2023-01-20T03:19:38.188Z,0
2023-01-20T03:24:38.200Z,0
2023-01-20T03:29:38.240Z,0
2023-01-20T03:34:38.181Z,0
2023-01-20T03:39:38.430Z,0
2023-01-20T03:44:38.446Z,0
2023-01-20T03:49:38.454Z,0
2023-01-20T03:54:38.432Z,0
2023-01-20T03:59:38.404Z,0
2023-01-20T04:04:38.444Z,0
2023-01-20T04:09:38.447Z,0
2023-01-20T04:14:38.435Z,0
2023-01-20T04:19:38.441Z,0
2023-01-20T04:24:38.411Z,0
2023-01-20T04:29:38.970Z,0
2023-01-20T04:34:38.926Z,0
2023-01-20T04:39:38.923Z,0
2023-01-20T04:44:38.977Z,0
2023-01-20T04:49:38.960Z,0
2023-01-20T04:54:39.530Z,0
2023-01-20T04:59:39.135Z,0
2023-01-20T05:04:39.142Z,0
2023-01-20T05:09:39.206Z,0
2023-01-20T05:14:39.169Z,0
2023-01-20T05:19:39.139Z,0
2023-01-20T05:24:39.139Z,0
2023-01-20T05:29:39.187Z,0
2023-01-20T05:34:39.176Z,0
2023-01-20T05:39:39.149Z,0
2023-01-20T05:44:39.152Z,0
2023-01-20T05:49:39.204Z,0
2023-01-20T05:54:39.120Z,0
2023-01-20T05:59:39.146Z,0
2023-01-20T06:04:39.122Z,0
2023-01-20T06:09:39.149Z,0
2023-01-20T06:14:39.136Z,0
2023-01-20T06:19:39.106Z,0
2023-01-20T06:24:39.092Z,0
2023-01-20T06:29:39.124Z,0
2023-01-20T06:34:39.138Z,0
2023-01-20T06:39:39.104Z,0
2023-01-20T06:44:39.125Z,0
2023-01-20T06:49:39.100Z,0
2023-01-20T06:54:39.114Z,0
2023-01-20T06:59:39.076Z,0
2023-01-20T07:04:39.077Z,0
2023-01-20T07:09:39.096Z,0
2023-01-20T07:14:39.084Z,0
2023-01-20T07:19:39.101Z,0
2023-01-20T07:24:39.100Z,0
2023-01-20T07:29:39.084Z,0
2023-01-20T07:34:39.067Z,0
2023-01-20T07:39:39.093Z,0
2023-01-20T07:44:39.073Z,0
2023-01-20T07:49:39.077Z,1
2023-01-20T07:54:39.061Z,2
2023-01-20T07:59:39.105Z,4
2023-01-20T08:04:39.124Z,13
2023-01-20T08:09:39.072Z,15
2023-01-20T08:14:39.052Z,10
2023-01-20T08:19:39.034Z,9
2023-01-20T08:24:39.046Z,15
2023-01-20T08:29:39.212Z,10
2023-01-20T08:34:39.315Z,15
2023-01-20T08:39:39.263Z,20
2023-01-20T08:44:39.272Z,37
2023-01-20T08:49:39.317Z,46
2023-01-20T08:54:39.264Z,45
2023-01-20T08:59:39.276Z,46
2023-01-20T09:04:39.245Z,49
2023-01-20T09:09:39.305Z,52
2023-01-20T09:14:39.306Z,39
2023-01-20T09:19:39.263Z,40
2023-01-20T09:24:39.272Z,59
2023-01-20T09:29:39.246Z,136
2023-01-20T09:34:39.255Z,188
2023-01-20T09:39:39.311Z,248
2023-01-20T09:44:39.246Z,158
2023-01-20T09:49:39.298Z,296
2023-01-20T09:54:39.270Z,282
2023-01-20T09:59:39.241Z,254
2023-01-20T10:04:39.250Z,371
2023-01-20T10:09:39.256Z,260
2023-01-20T10:14:39.273Z,261
2023-01-20T10:19:39.234Z,249
2023-01-20T10:24:39.279Z,183
2023-01-20T10:29:39.265Z,208
2023-01-20T10:34:39.214Z,214
2023-01-20T10:39:39.244Z,228
2023-01-20T10:44:39.247Z,183
2023-01-20T10:49:39.361Z,195
2023-01-20T10:54:39.232Z,199
2023-01-20T10:59:39.215Z,143
2023-01-20T11:04:39.244Z,143
2023-01-20T11:09:39.496Z,140
2023-01-20T11:14:39.490Z,114
2023-01-20T11:19:39.475Z,97
2023-01-20T11:24:39.481Z,75
2023-01-20T11:29:39.501Z,65
2023-01-20T11:34:39.460Z,55
2023-01-20T11:39:39.446Z,58
2023-01-20T11:44:39.443Z,93
2023-01-20T11:49:40.290Z,125
2023-01-20T11:54:40.281Z,143
2023-01-20T11:59:40.137Z,152
2023-01-20T12:04:40.155Z,105
2023-01-20T12:09:40.185Z,71
2023-01-20T12:14:40.186Z,69
2023-01-20T12:19:40.126Z,110
2023-01-20T12:24:43.050Z,107
2023-01-20T12:29:40.139Z,91
2023-01-20T12:34:40.390Z,78
2023-01-20T12:39:40.405Z,94
2023-01-20T12:44:40.358Z,83
2023-01-20T12:49:40.411Z,86
2023-01-20T12:54:48.149Z,105
2023-01-20T12:59:41.240Z,102
2023-01-20T13:04:41.229Z,75
2023-01-20T13:09:41.343Z,75
2023-01-20T13:14:41.283Z,70
2023-01-20T13:19:41.383Z,64
2023-01-20T13:24:41.377Z,55
2023-01-20T13:29:41.502Z,51
2023-01-20T13:34:41.501Z,44
2023-01-20T13:39:41.502Z,42
2023-01-20T13:44:42.553Z,35
2023-01-20T13:49:41.541Z,24
2023-01-20T13:54:41.472Z,20
2023-01-20T13:59:42.455Z,17
2023-01-20T14:04:43.445Z,18
2023-01-20T14:09:43.304Z,21
2023-01-20T14:14:43.547Z,22
2023-01-20T14:19:43.550Z,21
2023-01-20T14:24:43.505Z,20
2023-01-20T14:29:43.538Z,20
2023-01-20T14:34:43.532Z,20
2023-01-20T14:39:43.515Z,26
2023-01-20T14:44:43.755Z,29
2023-01-20T14:49:44.589Z,22
2023-01-20T14:54:44.485Z,22
2023-01-20T14:59:44.499Z,23
2023-01-20T15:04:44.535Z,16
2023-01-20T15:09:44.500Z,14
2023-01-20T15:14:44.487Z,11
2023-01-20T15:19:46.312Z,10
2023-01-20T15:24:46.151Z,8
2023-01-20T15:29:46.180Z,6
2023-01-20T15:34:46.445Z,2
2023-01-20T15:39:46.651Z,0
2023-01-20T15:44:46.885Z,0
2023-01-20T15:49:46.926Z,0
2023-01-20T15:54:47.173Z,0
2023-01-20T15:59:47.165Z,0
2023-01-20T16:04:47.161Z,0
2023-01-20T16:09:47.145Z,0
2023-01-20T16:14:47.393Z,0
2023-01-20T16:19:47.409Z,0
2023-01-20T16:24:47.373Z,0
2023-01-20T16:29:47.433Z,0
2023-01-20T16:34:47.398Z,0
2023-01-20T16:39:47.388Z,0
2023-01-20T16:44:47.377Z,0
2023-01-20T16:49:47.395Z,0
2023-01-20T16:54:47.361Z,0
2023-01-20T16:59:47.369Z,0
2023-01-20T17:04:47.348Z,0
2023-01-20T17:09:47.396Z,0
2023-01-20T17:14:47.345Z,0
2023-01-20T17:19:47.341Z,0
2023-01-20T17:24:48.066Z,0
2023-01-20T17:29:48.088Z,0
2023-01-20T17:34:48.069Z,0
2023-01-20T17:39:48.670Z,0
2023-01-20T17:44:48.296Z,0
2023-01-20T17:49:48.320Z,0
2023-01-20T17:54:48.314Z,0
2023-01-20T17:59:48.281Z,0
2023-01-20T18:04:48.269Z,0
2023-01-20T18:09:48.314Z,0
2023-01-20T18:14:48.265Z,0
2023-01-20T18:19:48.522Z,0
2023-01-20T18:24:48.518Z,0
2023-01-20T18:29:48.512Z,0
2023-01-20T18:34:48.526Z,0
2023-01-20T18:39:48.510Z,0
2023-01-20T18:44:48.503Z,0
2023-01-20T18:49:50.723Z,0
2023-01-20T18:54:50.530Z,0
2023-01-20T18:59:50.643Z,0
2023-01-20T19:04:50.543Z,0
2023-01-20T19:09:50.570Z,0
2023-01-20T19:14:51.643Z,0
2023-01-20T19:19:51.887Z,0
2023-01-20T19:24:51.871Z,0
2023-01-20T19:29:51.877Z,0
2023-01-20T19:34:51.883Z,0
2023-01-20T19:39:52.056Z,0
2023-01-20T19:44:52.135Z,0
2023-01-20T19:49:52.118Z,0
2023-01-20T19:54:52.349Z,0
2023-01-20T19:59:52.617Z,0
2023-01-20T20:04:52.589Z,0
2023-01-20T20:09:52.633Z,0
2023-01-20T20:14:52.582Z,0
2023-01-20T20:19:53.538Z,0
2023-01-20T20:24:53.543Z,0
2023-01-20T20:29:53.563Z,0
2023-01-20T20:34:53.776Z,0
2023-01-20T20:39:53.763Z,0
2023-01-20T20:44:53.749Z,0
2023-01-20T20:49:54.385Z,0
2023-01-20T20:54:54.019Z,0
2023-01-20T20:59:59.043Z,0
2023-01-20T21:04:54.035Z,0
2023-01-20T21:09:54.036Z,0
2023-01-20T21:14:54.015Z,0
2023-01-20T21:19:53.989Z,0
2023-01-20T21:24:54.239Z,0
2023-01-20T21:29:54.299Z,0
2023-01-20T21:34:54.252Z,0
2023-01-20T21:39:54.244Z,0
2023-01-20T21:44:54.221Z,0
2023-01-20T21:49:54.229Z,0
2023-01-20T21:54:54.468Z,0
2023-01-20T21:59:54.727Z,0
2023-01-20T22:04:54.749Z,0
2023-01-20T22:09:56.507Z,0
2023-01-20T22:14:55.596Z,0
2023-01-20T22:19:55.561Z,0
2023-01-20T22:24:55.809Z,0
2023-01-20T22:29:55.867Z,0
2023-01-20T22:34:55.786Z,0
2023-01-20T22:39:55.838Z,0
2023-01-20T22:44:55.804Z,0
2023-01-20T22:49:55.804Z,0
2023-01-20T22:54:55.803Z,0
2023-01-20T22:59:56.036Z,0
2023-01-20T23:04:57.407Z,0
2023-01-20T23:09:57.302Z,0
2023-01-20T23:14:57.240Z,0
2023-01-20T23:19:57.233Z,0
2023-01-20T23:24:57.217Z,0
2023-01-20T23:29:57.232Z,0
2023-01-20T23:34:57.212Z,0
2023-01-20T23:39:57.227Z,0
2023-01-20T23:44:57.236Z,0
2023-01-20T23:49:57.243Z,0
2023-01-20T23:54:57.205Z,0
2023-01-20T23:59:57.205Z,0
